Time;durP1;ratioP1;P1;durP2;ratioP2;P2;SDS_P1;SDS_P2;PMS_P1;PMS_P2;Temp;Humidity;BMP_temperature;BMP_pressure;BME280_temperature;BME280_humidity;BME280_pressure;Samples;Min_cycle;Max_cycle;Signal;HPM_P1;HPM_P2
2022/11/29 00:00:08;;;;;;;94.53;37.25;;;;;;;1.25;99.20;99557.63;8390325;28;20048;-76
2022/11/29 00:04:29;;;;;;;94.55;37.83;;;;;;;1.31;99.07;99549.72;8389868;28;20102;-76
2022/11/29 00:08:30;;;;;;;91.40;38.63;;;;;;;1.27;98.96;99550.19;8432794;28;20465;-75
2022/11/29 00:12:31;;;;;;;90.45;38.53;;;;;;;1.25;98.86;99552.31;8432457;28;20104;-76
2022/11/29 00:16:32;;;;;;;86.50;38.17;;;;;;;1.23;99.05;99543.72;8432197;28;20406;-75
2022/11/29 00:20:34;;;;;;;90.88;37.70;;;;;;;1.22;99.29;99547.44;8431857;28;20048;-74
2022/11/29 00:24:35;;;;;;;90.65;36.58;;;;;;;1.28;99.03;99541.16;8432514;28;20097;-75
2022/11/29 00:28:36;;;;;;;83.70;37.85;;;;;;;1.26;98.95;99548.59;8433013;28;20052;-75
2022/11/29 00:32:37;;;;;;;86.68;37.45;;;;;;;1.39;98.32;99541.34;8395999;28;20044;-76
2022/11/29 00:36:38;;;;;;;88.47;36.83;;;;;;;1.35;98.28;99534.91;8432544;28;20154;-75
2022/11/29 00:40:39;;;;;;;88.80;38.03;;;;;;;1.33;98.38;99545.78;8430845;28;20047;-75
2022/11/29 00:44:40;;;;;;;87.90;37.47;;;;;;;1.25;98.57;99541.66;8432565;28;20060;-75
2022/11/29 00:48:41;;;;;;;84.88;37.05;;;;;;;1.25;98.42;99536.34;8431726;28;20040;-76
2022/11/29 00:52:42;;;;;;;95.53;38.75;;;;;;;1.22;98.47;99536.78;8431711;28;20135;-75
2022/11/29 00:56:43;;;;;;;90.88;37.22;;;;;;;1.21;98.93;99539.72;8379444;28;20040;-75
2022/11/29 01:00:44;;;;;;;97.70;38.55;;;;;;;1.25;98.36;99536.34;8431131;28;20147;-76
2022/11/29 01:04:45;;;;;;;93.07;36.42;;;;;;;1.23;98.65;99538.41;8418212;28;20052;-75
2022/11/29 01:08:47;;;;;;;83.82;37.45;;;;;;;1.26;98.61;99532.63;8431468;28;20429;-75
2022/11/29 01:12:48;;;;;;;87.85;38.55;;;;;;;1.23;98.51;99533.09;8426903;28;20550;-75
2022/11/29 01:16:48;;;;;;;80.85;38.08;;;;;;;1.23;98.51;99532.28;8431543;28;20073;-75
2022/11/29 01:21:04;;;;;;;88.25;36.97;;;;;;;1.19;98.78;99542.59;8429137;28;20059;-76
2022/11/29 01:25:06;;;;;;;98.40;38.10;;;;;;;1.15;98.89;99541.47;8422121;28;20046;-75
2022/11/29 01:29:11;;;;;;;91.22;38.13;;;;;;;1.16;98.82;99537.75;8379107;28;20043;-75
2022/11/29 01:33:12;;;;;;;85.25;35.90;;;;;;;1.16;98.57;99543.06;8400033;28;20051;-76
2022/11/29 01:37:13;;;;;;;83.43;36.08;;;;;;;1.07;98.89;99528.53;8364080;28;20044;-75
2022/11/29 01:41:17;;;;;;;81.82;35.45;;;;;;;1.14;98.73;99534.53;8393405;28;20051;-75
2022/11/29 01:45:22;;;;;;;85.78;36.42;;;;;;;1.11;98.42;99540.31;8430471;28;20059;-75
2022/11/29 01:49:27;;;;;;;79.97;36.25;;;;;;;1.08;98.44;99535.47;8430587;28;20044;-76
2022/11/29 01:53:29;;;;;;;91.63;37.60;;;;;;;1.13;98.63;99538.22;8410864;28;20506;-77
2022/11/29 01:57:49;;;;;;;90.15;37.28;;;;;;;1.15;98.60;99536.16;8421442;28;20048;-75
2022/11/29 02:01:51;;;;;;;91.53;36.33;;;;;;;1.19;98.30;99531.97;8324888;28;20072;-75
2022/11/29 02:05:52;;;;;;;88.65;37.08;;;;;;;1.16;98.20;99529.75;8326948;28;20526;-75
2022/11/29 02:09:53;;;;;;;89.22;37.58;;;;;;;1.13;98.45;99538.22;8325395;28;20129;-75
2022/11/29 02:13:54;;;;;;;90.80;37.35;;;;;;;1.15;98.35;99533.50;8285390;28;20154;-75
2022/11/29 02:18:13;;;;;;;92.72;37.25;;;;;;;1.16;98.52;99537.75;8326070;28;20037;-75
2022/11/29 02:22:16;;;;;;;93.30;35.85;;;;;;;1.16;98.45;99532.41;8308940;28;20603;-75
2022/11/29 02:26:17;;;;;;;95.03;35.22;;;;;;;1.19;98.65;99537.28;8324929;28;20100;-76
2022/11/29 02:30:27;;;;;;;85.32;36.17;;;;;;;1.15;98.36;99533.50;8329733;28;20053;-76
2022/11/29 02:34:46;;;;;;;87.65;35.45;;;;;;;1.19;98.49;99536.47;8426251;28;20517;-75
2022/11/29 02:38:50;;;;;;;85.43;35.22;;;;;;;1.23;98.29;99538.41;8413351;28;20406;-75
2022/11/29 02:43:10;;;;;;;84.10;34.97;;;;;;;1.20;98.25;99538.91;8420894;28;20055;-75
2022/11/29 02:47:32;;;;;;;82.43;35.00;;;;;;;1.23;98.51;99540.25;8428497;28;20048;-75
2022/11/29 02:51:39;;;;;;;84.72;34.80;;;;;;;1.24;98.40;99550.69;8428424;28;20050;-75
2022/11/29 02:55:57;;;;;;;85.32;35.20;;;;;;;1.23;98.31;99545.59;8419112;28;20068;-75
2022/11/29 03:00:07;;;;;;;82.85;34.53;;;;;;;1.23;98.26;99549.06;8371111;28;20490;-77
2022/11/29 03:04:41;;;;;;;73.30;33.50;;;;;;;1.22;98.43;99547.44;8399791;28;20413;-75
2022/11/29 03:08:48;;;;;;;78.35;34.65;;;;;;;1.24;98.52;99545.34;8427197;28;20071;-76
2022/11/29 03:12:51;;;;;;;79.25;34.55;;;;;;;1.26;98.54;99553.91;8427605;28;20072;-75
2022/11/29 03:17:23;;;;;;;79.82;33.80;;;;;;;1.31;98.15;99555.06;8409815;28;20047;-75
2022/11/29 03:21:40;;;;;;;78.00;33.45;;;;;;;1.26;98.14;99556.59;8426666;28;20052;-76
2022/11/29 03:26:16;;;;;;;86.40;36.73;;;;;;;1.27;98.02;99554.69;8409563;28;20056;-75
2022/11/29 03:30:18;;;;;;;78.03;33.85;;;;;;;1.27;98.30;99566.16;8259007;28;20101;-75
2022/11/29 03:34:34;;;;;;;86.13;35.25;;;;;;;1.27;98.17;99568.81;8241470;28;20049;-75
2022/11/29 03:38:44;;;;;;;80.35;35.38;;;;;;;1.30;98.38;99564.06;8257724;28;20054;-75
2022/11/29 03:42:57;;;;;;;82.57;34.40;;;;;;;1.31;97.97;99565.69;8258409;28;20141;-75
2022/11/29 03:47:07;;;;;;;81.75;35.17;;;;;;;1.31;98.10;99568.34;8194237;29;20094;-75
2022/11/29 03:51:21;;;;;;;81.38;33.58;;;;;;;1.30;97.80;99569.41;8178390;29;20118;-75
2022/11/29 03:55:31;;;;;;;75.70;33.25;;;;;;;1.28;98.10;99578.41;8162851;29;20052;-75
2022/11/29 03:59:55;;;;;;;78.75;33.55;;;;;;;1.34;97.99;99581.19;8194767;28;20071;-76
2022/11/29 04:04:18;;;;;;;76.65;34.88;;;;;;;1.28;97.79;99573.09;8100475;28;20068;-75
2022/11/29 04:08:44;;;;;;;79.88;35.80;;;;;;;1.25;97.90;99573.59;8226096;28;20093;-74
2022/11/29 04:13:14;;;;;;;78.05;34.13;;;;;;;1.25;97.64;99573.59;8226167;28;20512;-75
2022/11/29 04:17:29;;;;;;;88.65;35.35;;;;;;;1.19;97.54;99574.53;8224519;28;20453;-75
2022/11/29 04:21:57;;;;;;;78.07;34.78;;;;;;;1.21;97.59;99580.44;8213242;28;20051;-75
2022/11/29 04:26:22;;;;;;;77.72;33.92;;;;;;;1.28;97.57;99583.75;8107430;29;20398;-76
2022/11/29 04:30:24;;;;;;;80.22;34.75;;;;;;;1.25;97.20;99586.88;8113121;29;20065;-75
2022/11/29 04:34:44;;;;;;;79.53;34.78;;;;;;;1.27;97.20;99598.09;8077299;29;20052;-76
2022/11/29 04:39:26;;;;;;;76.85;33.97;;;;;;;1.27;97.32;99587.44;8097109;29;20513;-76
2022/11/29 04:43:30;;;;;;;73.68;32.35;;;;;;;1.27;97.32;99592.75;8135776;29;20084;-75
2022/11/29 04:48:09;;;;;;;81.72;33.90;;;;;;;1.25;97.51;99610.84;8132018;29;20139;-75
2022/11/29 04:52:45;;;;;;;79.28;34.63;;;;;;;1.24;97.43;99608.41;8041573;29;20053;-76
2022/11/29 04:56:51;;;;;;;76.05;33.45;;;;;;;1.24;97.07;99608.41;8042030;29;20061;-76
2022/11/29 05:01:19;;;;;;;77.82;34.20;;;;;;;1.26;96.92;99612.47;8062760;29;20063;-75
2022/11/29 05:05:42;;;;;;;91.10;39.20;;;;;;;1.22;97.39;99610.47;8122750;29;20483;-76
2022/11/29 05:09:45;;;;;;;86.47;35.42;;;;;;;1.14;97.68;99609.00;8116437;29;20048;-76
2022/11/29 05:13:57;;;;;;;76.72;34.42;;;;;;;1.16;97.35;99606.91;8148550;29;20197;-75
2022/11/29 05:18:13;;;;;;;77.40;35.10;;;;;;;1.16;97.46;99616.75;8193969;28;20074;-75
2022/11/29 05:22:42;;;;;;;80.13;34.58;;;;;;;1.17;97.60;99619.16;8247092;28;20054;-75
2022/11/29 05:26:54;;;;;;;89.40;34.70;;;;;;;1.20;97.33;99621.38;8307583;28;20044;-75
2022/11/29 05:31:17;;;;;;;78.03;33.92;;;;;;;1.18;97.40;99620.78;8413382;28;20067;-75
2022/11/29 05:35:42;;;;;;;79.22;35.20;;;;;;;1.13;97.60;99619.88;8431294;28;20066;-75
2022/11/29 05:40:21;;;;;;;80.53;34.78;;;;;;;1.08;98.07;99631.22;8423379;28;20410;-75
2022/11/29 05:44:35;;;;;;;77.97;35.33;;;;;;;1.13;97.36;99644.63;8424914;28;20059;-75
2022/11/29 05:48:52;;;;;;;72.15;33.20;;;;;;;1.11;97.87;99646.69;8425119;28;20063;-75
2022/11/29 05:53:04;;;;;;;76.90;34.78;;;;;;;1.15;97.49;99633.75;8401175;28;20044;-75
2022/11/29 05:57:12;;;;;;;78.40;35.03;;;;;;;1.22;97.49;99647.72;8408625;28;20379;-75
2022/11/29 06:01:25;;;;;;;84.15;35.58;;;;;;;1.19;97.64;99653.53;8405620;28;20040;-75
2022/11/29 06:05:49;;;;;;;92.88;36.30;;;;;;;1.19;97.62;99654.34;8415697;28;20039;-75
2022/11/29 06:10:00;;;;;;;89.50;36.47;;;;;;;1.17;97.58;99659.06;8407808;28;20044;-76
2022/11/29 06:14:07;;;;;;;77.78;33.85;;;;;;;1.24;97.72;99662.44;8384772;28;20044;-75
2022/11/29 06:18:38;;;;;;;90.97;37.47;;;;;;;1.28;97.28;99663.56;8386841;28;20044;-76
2022/11/29 06:23:09;;;;;;;77.40;33.72;;;;;;;1.34;97.40;99671.66;8420952;28;20044;-76
2022/11/29 06:27:45;;;;;;;80.15;36.67;;;;;;;1.34;97.28;99676.97;8411094;28;20047;-75
2022/11/29 06:31:51;;;;;;;83.43;35.47;;;;;;;1.30;97.67;99670.50;8429458;28;20527;-75
2022/11/29 06:35:55;;;;;;;78.75;34.63;;;;;;;1.30;97.50;99681.16;8411595;28;20048;-75
2022/11/29 06:39:56;;;;;;;82.30;35.45;;;;;;;1.37;97.42;99679.19;8428939;28;20050;-75
2022/11/29 06:43:59;;;;;;;77.78;35.63;;;;;;;1.39;97.55;99685.06;8416560;28;20143;-75
2022/11/29 06:48:04;;;;;;;77.15;34.42;;;;;;;1.41;97.58;99683.00;8375401;28;20055;-76
2022/11/29 06:52:20;;;;;;;81.68;37.17;;;;;;;1.44;97.85;99690.50;8409938;28;20040;-75
2022/11/29 06:56:25;;;;;;;83.43;38.65;;;;;;;1.46;97.50;99693.75;8428997;28;20044;-76
2022/11/29 07:00:35;;;;;;;78.88;37.15;;;;;;;1.51;97.77;99688.50;8397785;28;20119;-75
2022/11/29 07:04:39;;;;;;;89.40;38.05;;;;;;;1.52;97.41;99695.47;8429065;28;20098;-76
2022/11/29 07:08:41;;;;;;;79.13;36.33;;;;;;;1.54;97.60;99690.69;8421162;28;20059;-76
2022/11/29 07:12:44;;;;;;;83.85;36.33;;;;;;;1.57;97.63;99692.91;8408481;28;20059;-74
2022/11/29 07:16:54;;;;;;;88.80;38.67;;;;;;;1.60;97.51;99697.75;8428550;28;20052;-76
2022/11/29 07:21:20;;;;;;;81.30;36.13;;;;;;;1.56;97.48;99691.28;8428162;28;20268;-75
2022/11/29 07:25:27;;;;;;;81.45;36.33;;;;;;;1.64;97.38;99704.22;8410378;28;20044;-75
2022/11/29 07:29:43;;;;;;;101.03;40.22;;;;;;;1.66;97.06;99691.47;8428280;28;20040;-76
2022/11/29 07:34:15;;;;;;;105.03;42.15;;;;;;;1.67;97.46;99698.44;8414907;28;20071;-76
2022/11/29 07:38:42;;;;;;;89.15;39.85;;;;;;;1.68;97.63;99694.72;8420539;28;20040;-75
2022/11/29 07:42:49;;;;;;;81.57;38.05;;;;;;;1.71;97.42;99704.88;8408244;28;20048;-75
2022/11/29 07:46:50;;;;;;;93.63;38.58;;;;;;;1.76;97.13;99707.66;8421605;28;20052;-76
2022/11/29 07:50:53;;;;;;;85.57;38.33;;;;;;;1.77;97.33;99709.28;8417208;28;20052;-75
2022/11/29 07:54:54;;;;;;;89.15;39.03;;;;;;;1.88;96.83;99708.44;8339898;28;20056;-75
2022/11/29 07:58:55;;;;;;;83.18;40.58;;;;;;;1.89;96.99;99712.72;8283449;28;20049;-76
2022/11/29 08:02:56;;;;;;;91.50;38.63;;;;;;;1.94;96.57;99715.47;8356563;28;20045;-76
2022/11/29 08:06:59;;;;;;;84.43;38.40;;;;;;;1.93;96.54;99713.84;8339770;28;20060;-75
2022/11/29 08:10:59;;;;;;;83.10;35.75;;;;;;;1.97;96.44;99717.66;8343415;28;20053;-76
2022/11/29 08:15:01;;;;;;;80.82;35.05;;;;;;;2.02;96.29;99728.41;8347249;28;20569;-75
2022/11/29 08:19:02;;;;;;;101.13;40.75;;;;;;;2.05;96.64;99727.94;8356847;28;20136;-75
2022/11/29 08:23:03;;;;;;;85.28;38.58;;;;;;;2.03;96.38;99724.69;8360055;28;20040;-76
2022/11/29 08:27:04;;;;;;;92.60;38.22;;;;;;;2.16;96.02;99723.63;8414814;28;20044;-75
2022/11/29 08:31:08;;;;;;;89.60;38.83;;;;;;;2.24;95.54;99725.88;8432980;28;20040;-75
2022/11/29 08:35:09;;;;;;;91.53;40.60;;;;;;;2.31;95.61;99736.41;8433165;28;20044;-76
2022/11/29 08:39:10;;;;;;;90.30;36.60;;;;;;;2.41;95.15;99728.56;8407921;28;20486;-75
2022/11/29 08:43:11;;;;;;;89.15;37.85;;;;;;;2.44;94.92;99730.75;8427136;28;20079;-76
2022/11/29 08:51:32;;;;;;;87.07;39.17;;;;;;;2.51;94.67;99726.09;8430702;28;20036;-76
2022/11/29 08:55:41;;;;;;;85.63;38.75;;;;;;;2.54;94.27;99736.25;8420263;28;20052;-75
2022/11/29 08:59:43;;;;;;;92.10;39.13;;;;;;;2.44;94.53;99736.09;8420105;28;20079;-75
2022/11/29 09:04:05;;;;;;;83.95;38.35;;;;;;;2.46;93.78;99740.13;8433120;28;20059;-75
2022/11/29 09:08:08;;;;;;;87.88;39.38;;;;;;;2.43;94.11;99737.16;8432580;28;20090;-75
2022/11/29 09:12:08;;;;;;;93.03;39.45;;;;;;;2.39;94.69;99744.00;8419088;28;20051;-75
2022/11/29 09:16:12;;;;;;;90.82;41.05;;;;;;;2.48;94.38;99742.56;8431667;28;20047;-75
2022/11/29 09:20:13;;;;;;;89.70;39.28;;;;;;;2.48;94.33;99739.91;8413330;28;20056;-75
2022/11/29 09:24:14;;;;;;;92.45;40.83;;;;;;;2.53;94.19;99734.66;8431943;28;20055;-75
2022/11/29 09:28:15;;;;;;;86.00;39.10;;;;;;;2.55;94.18;99748.53;8432671;28;20127;-75
2022/11/29 09:32:16;;;;;;;90.22;39.78;;;;;;;2.54;93.96;99747.72;8431321;28;20056;-76
2022/11/29 09:36:18;;;;;;;93.70;43.45;;;;;;;2.60;94.25;99740.63;8409499;28;20048;-75
2022/11/29 09:40:24;;;;;;;88.22;41.38;;;;;;;2.70;93.54;99746.13;8426723;28;20120;-75
2022/11/29 09:44:34;;;;;;;95.10;40.97;;;;;;;2.66;93.43;99745.00;8413033;28;20648;-75
2022/11/29 09:49:02;;;;;;;97.22;41.88;;;;;;;2.74;93.32;99752.63;8428678;28;20058;-75
2022/11/29 09:53:20;;;;;;;88.97;40.22;;;;;;;2.71;93.39;99753.09;8410065;28;20533;-75
2022/11/29 09:57:22;;;;;;;86.13;38.23;;;;;;;2.72;93.44;99749.38;8415873;28;20051;-75
2022/11/29 10:01:30;;;;;;;103.38;43.67;;;;;;;2.68;93.70;99748.25;8414468;28;20048;-75
2022/11/29 10:05:48;;;;;;;146.93;57.55;;;;;;;2.78;93.24;99748.41;8410691;28;20074;-75
2022/11/29 10:10:00;;;;;;;117.90;50.92;;;;;;;2.81;93.44;99742.59;8367378;28;20044;-74
2022/11/29 10:14:17;;;;;;;93.50;42.90;;;;;;;2.90;93.14;99741.16;8418107;28;20056;-75
2022/11/29 10:18:23;;;;;;;97.47;44.22;;;;;;;2.78;93.55;99753.75;8420914;28;20048;-74
2022/11/29 10:22:41;;;;;;;103.95;44.25;;;;;;;2.83;93.61;99751.16;8342211;28;20091;-75
2022/11/29 10:26:43;;;;;;;93.15;42.72;;;;;;;2.93;93.69;99751.31;8330011;28;20509;-75
2022/11/29 10:30:44;;;;;;;96.57;43.17;;;;;;;2.97;93.60;99752.44;8334386;28;20064;-74
2022/11/29 10:34:47;;;;;;;96.53;43.15;;;;;;;3.00;93.51;99761.03;8335896;28;20048;-75
2022/11/29 10:38:49;;;;;;;93.07;42.55;;;;;;;3.05;93.51;99747.75;8344188;28;20521;-75
2022/11/29 10:42:52;;;;;;;96.40;41.45;;;;;;;3.10;93.29;99750.50;8351125;28;20131;-75
2022/11/29 10:46:53;;;;;;;85.07;40.38;;;;;;;2.98;93.78;99743.38;8352786;28;20094;-75
2022/11/29 10:50:54;;;;;;;92.75;42.05;;;;;;;3.06;93.72;99750.19;8355790;28;20090;-75
2022/11/29 10:54:56;;;;;;;97.75;44.78;;;;;;;3.15;93.59;99737.22;8358775;28;20037;-75
2022/11/29 10:59:02;;;;;;;95.88;41.83;;;;;;;3.15;93.77;99737.22;8380312;28;20128;-75
2022/11/29 11:03:17;;;;;;;93.82;42.55;;;;;;;3.16;93.76;99750.34;8384978;28;20059;-75
2022/11/29 11:07:37;;;;;;;100.47;43.10;;;;;;;3.26;93.34;99741.66;8360756;28;20057;-75
2022/11/29 11:11:38;;;;;;;89.72;41.97;;;;;;;3.30;93.25;99746.28;8381557;28;20045;-75
2022/11/29 11:15:39;;;;;;;94.78;41.40;;;;;;;3.33;93.45;99744.97;8385369;28;20048;-75
2022/11/29 11:19:40;;;;;;;91.20;40.92;;;;;;;3.34;93.24;99741.22;8386246;28;20064;-76
2022/11/29 11:23:47;;;;;;;98.10;40.63;;;;;;;3.37;93.08;99736.22;8365722;28;20547;-75
2022/11/29 11:27:48;;;;;;;91.22;41.08;;;;;;;3.44;93.06;99745.94;8380496;28;20048;-75
2022/11/29 11:31:52;;;;;;;85.80;39.92;;;;;;;3.45;93.05;99740.31;8368338;28;20135;-75
2022/11/29 11:36:19;;;;;;;82.60;39.10;;;;;;;3.51;92.81;99747.34;8383034;28;20047;-75
2022/11/29 11:40:29;;;;;;;102.78;43.80;;;;;;;3.61;92.34;99746.66;8372920;28;20136;-75
2022/11/29 11:44:29;;;;;;;97.63;40.40;;;;;;;3.61;92.42;99747.47;8407683;28;20502;-75
2022/11/29 11:48:31;;;;;;;88.47;41.63;;;;;;;3.64;92.49;99741.66;8413997;28;20056;-75
2022/11/29 11:52:40;;;;;;;90.35;41.58;;;;;;;3.67;92.57;99743.81;8321771;28;20054;-75
2022/11/29 11:56:41;;;;;;;98.88;42.97;;;;;;;3.74;92.56;99751.66;8379057;28;20040;-75
2022/11/29 12:00:45;;;;;;;98.53;42.78;;;;;;;3.76;92.28;99761.03;8407108;28;20450;-75
2022/11/29 12:04:45;;;;;;;87.80;39.65;;;;;;;3.72;92.51;99765.25;8426562;28;20133;-74
2022/11/29 12:08:47;;;;;;;89.90;42.42;;;;;;;3.73;92.57;99772.22;8443248;28;20177;-75
2022/11/29 12:12:49;;;;;;;99.53;45.63;;;;;;;3.74;92.60;99768.50;8434831;28;20052;-76
2022/11/29 12:16:58;;;;;;;108.82;46.88;;;;;;;3.78;92.64;99764.28;8431801;28;20044;-75
2022/11/29 12:21:04;;;;;;;95.40;42.75;;;;;;;3.83;92.24;99777.69;8415730;28;20055;-75
2022/11/29 12:25:11;;;;;;;84.60;39.67;;;;;;;3.78;92.31;99774.97;8425638;28;20059;-75
2022/11/29 12:29:18;;;;;;;91.40;42.40;;;;;;;3.79;92.59;99771.25;8425243;28;20048;-75
2022/11/29 12:34:00;;;;;;;81.93;39.38;;;;;;;3.82;92.58;99768.06;8412241;28;20040;-75
2022/11/29 12:38:33;;;;;;;86.15;39.78;;;;;;;3.85;92.14;99768.63;8334829;28;20049;-74
2022/11/29 12:42:46;;;;;;;86.55;39.38;;;;;;;3.85;92.12;99768.63;8329927;28;20076;-75
2022/11/29 12:47:07;;;;;;;86.30;39.65;;;;;;;3.90;92.17;99771.38;8308109;28;20045;-74
2022/11/29 12:51:20;;;;;;;87.95;38.83;;;;;;;3.93;91.82;99776.19;8324051;28;20068;-75
2022/11/29 12:55:30;;;;;;;73.97;36.28;;;;;;;3.97;91.68;99782.66;8333493;28;20123;-75
2022/11/29 12:59:49;;;;;;;80.65;35.17;;;;;;;4.09;91.58;99764.63;8310193;28;20048;-75
2022/11/29 13:03:54;;;;;;;80.85;35.05;;;;;;;4.16;91.43;99770.59;8303309;28;20484;-76
2022/11/29 13:08:16;;;;;;;81.82;36.40;;;;;;;4.29;90.80;99774.72;8300800;28;20046;-76
2022/11/29 13:12:39;;;;;;;82.20;36.13;;;;;;;4.37;90.57;99788.47;8384555;28;20069;-77
2022/11/29 13:16:57;;;;;;;82.53;36.17;;;;;;;4.39;90.43;99785.56;8397299;28;20060;-76
2022/11/29 13:21:01;;;;;;;82.77;37.67;;;;;;;4.36;89.72;99786.84;8386637;28;20059;-77
2022/11/29 13:25:13;;;;;;;90.40;41.10;;;;;;;4.35;89.88;99787.91;8431111;28;20044;-77
2022/11/29 13:29:16;;;;;;;78.22;35.70;;;;;;;4.37;89.74;99785.81;8396355;28;20520;-76
2022/11/29 13:33:28;;;;;;;80.40;36.47;;;;;;;4.37;89.00;99793.81;8416520;28;20044;-76
2022/11/29 13:37:37;;;;;;;83.00;38.65;;;;;;;4.26;88.97;99797.44;8395162;28;20128;-77
2022/11/29 13:41:53;;;;;;;76.10;37.25;;;;;;;4.21;88.73;99805.41;8396028;28;20040;-76
2022/11/29 13:46:19;;;;;;;82.32;37.47;;;;;;;4.09;89.34;99799.38;8362738;28;20064;-77
2022/11/29 13:50:49;;;;;;;78.13;35.50;;;;;;;4.07;89.34;99815.66;8414487;28;20049;-75
2022/11/29 13:55:22;;;;;;;79.95;36.55;;;;;;;4.03;88.93;99808.38;8277065;28;20058;-76
2022/11/29 13:59:30;;;;;;;89.40;38.60;;;;;;;3.88;89.08;99816.22;8279416;28;20463;-76
2022/11/29 14:03:37;;;;;;;82.75;37.42;;;;;;;3.86;89.13;99807.66;8269312;28;20137;-77
2022/11/29 14:08:16;;;;;;;88.72;38.80;;;;;;;3.78;89.48;99827.59;8277553;28;20641;-76
2022/11/29 14:12:38;;;;;;;86.28;36.42;;;;;;;3.78;89.23;99833.72;8276445;28;20042;-76
2022/11/29 14:16:41;;;;;;;85.60;37.28;;;;;;;3.73;89.26;99836.34;8264706;28;20595;-78
2022/11/29 14:20:52;;;;;;;82.75;36.10;;;;;;;3.62;89.55;99834.56;8279450;28;20041;-78
2022/11/29 14:24:59;;;;;;;83.45;37.25;;;;;;;3.59;89.33;99851.09;8279017;28;20054;-78
2022/11/29 14:29:02;;;;;;;87.72;37.60;;;;;;;3.53;89.84;99846.72;8300284;28;20116;-77
2022/11/29 14:33:14;;;;;;;83.65;37.17;;;;;;;3.46;89.94;99847.94;8405275;28;20056;-78
2022/11/29 14:37:34;;;;;;;81.35;36.22;;;;;;;3.38;90.10;99846.50;8419009;28;20048;-77
2022/11/29 14:42:22;;;;;;;84.75;38.03;;;;;;;3.35;89.91;99847.78;8428142;28;20055;-78
2022/11/29 14:46:26;;;;;;;87.88;37.70;;;;;;;3.28;90.28;99854.34;8330995;28;20049;-75
2022/11/29 14:50:38;;;;;;;82.90;38.67;;;;;;;3.25;90.82;99854.81;8332642;28;20053;-74
2022/11/29 14:55:15;;;;;;;80.97;38.33;;;;;;;3.19;90.98;99850.44;8283763;28;20426;-74
2022/11/29 14:59:50;;;;;;;88.20;39.65;;;;;;;3.20;90.93;99852.88;8325426;28;20049;-76
2022/11/29 15:03:53;;;;;;;89.78;40.80;;;;;;;3.18;91.21;99864.84;8308534;28;20095;-75
2022/11/29 15:08:31;;;;;;;88.43;39.70;;;;;;;3.17;91.26;99863.25;8312129;28;20369;-75
2022/11/29 15:12:36;;;;;;;84.32;36.85;;;;;;;3.14;91.42;99863.72;8329498;28;20045;-75
2022/11/29 15:17:14;;;;;;;96.10;39.50;;;;;;;3.09;91.21;99860.97;8376414;28;20067;-75
2022/11/29 15:21:31;;;;;;;88.97;38.05;;;;;;;3.01;91.63;99866.72;8411501;28;20048;-74
2022/11/29 15:25:32;;;;;;;92.78;40.83;;;;;;;3.01;91.61;99872.03;8391918;28;20050;-75
2022/11/29 15:29:33;;;;;;;94.68;41.25;;;;;;;3.02;91.91;99870.97;8424227;28;20047;-75
2022/11/29 15:33:37;;;;;;;91.32;40.65;;;;;;;2.97;91.95;99877.84;8422512;28;20483;-75
2022/11/29 15:37:41;;;;;;;92.65;42.30;;;;;;;2.96;92.02;99876.22;8422359;28;20051;-74
2022/11/29 15:41:42;;;;;;;91.38;39.00;;;;;;;2.97;92.33;99875.19;8398449;28;20082;-74
2022/11/29 15:45:54;;;;;;;95.18;41.92;;;;;;;2.96;92.28;99878.88;8402966;28;20047;-74
2022/11/29 15:49:55;;;;;;;102.20;43.97;;;;;;;3.02;92.01;99876.31;8425713;28;20512;-74
2022/11/29 15:54:05;;;;;;;95.22;40.67;;;;;;;3.00;92.13;99873.91;8424024;28;20037;-74
2022/11/29 15:58:10;;;;;;;92.55;40.72;;;;;;;3.02;92.16;99886.97;8420181;28;20405;-74
2022/11/29 16:02:14;;;;;;;92.70;42.03;;;;;;;2.95;92.42;99893.31;8394810;28;20395;-75
2022/11/29 16:06:18;;;;;;;97.72;42.70;;;;;;;2.93;92.41;99890.06;8416565;28;20091;-76
2022/11/29 16:10:24;;;;;;;111.47;48.75;;;;;;;2.90;92.49;99901.22;8418085;28;20045;-74
2022/11/29 16:14:29;;;;;;;118.70;50.38;;;;;;;2.84;92.81;99896.84;8424352;28;20059;-74
2022/11/29 16:18:31;;;;;;;108.65;46.60;;;;;;;2.83;92.87;99900.53;8411500;28;20127;-74
2022/11/29 16:22:32;;;;;;;111.97;45.42;;;;;;;2.85;92.71;99898.47;8364338;28;20045;-75
2022/11/29 16:26:37;;;;;;;108.32;45.38;;;;;;;2.84;92.71;99896.84;8406869;28;20048;-75
2022/11/29 16:30:40;;;;;;;102.78;45.33;;;;;;;2.84;92.70;99896.03;8377659;28;20055;-75
2022/11/29 16:34:43;;;;;;;106.95;45.30;;;;;;;2.78;93.05;99903.13;8409836;28;20048;-75
2022/11/29 16:39:06;;;;;;;106.63;45.20;;;;;;;2.73;93.21;99905.69;8407118;28;20050;-74
2022/11/29 16:43:17;;;;;;;106.05;44.30;;;;;;;2.75;92.99;99908.91;8417039;28;20469;-75
2022/11/29 16:47:24;;;;;;;102.32;45.85;;;;;;;2.70;93.34;99922.16;8423404;28;20071;-74
2022/11/29 16:51:37;;;;;;;105.97;46.38;;;;;;;2.65;93.39;99924.72;8430387;28;20055;-74
2022/11/29 16:55:39;;;;;;;100.63;42.90;;;;;;;2.70;93.22;99916.81;8421719;28;20048;-74
2022/11/29 16:59:41;;;;;;;99.68;43.67;;;;;;;2.59;93.58;99931.03;8405417;28;20052;-74
2022/11/29 17:03:42;;;;;;;107.80;46.10;;;;;;;2.66;93.63;99926.34;8420706;28;20054;-75
2022/11/29 17:07:43;;;;;;;105.15;45.63;;;;;;;2.64;93.67;99928.47;8416094;28;20048;-75
2022/11/29 17:11:45;;;;;;;107.38;48.22;;;;;;;2.67;93.45;99938.63;8400908;28;20525;-76
2022/11/29 17:15:46;;;;;;;113.38;47.47;;;;;;;2.64;93.33;99944.47;8418317;28;20083;-75
2022/11/29 17:19:47;;;;;;;117.70;49.67;;;;;;;2.57;93.55;99949.09;8419214;28;20074;-74
2022/11/29 17:23:49;;;;;;;117.97;48.22;;;;;;;2.60;93.12;99947.81;8428391;28;20044;-74
2022/11/29 17:27:50;;;;;;;114.72;49.88;;;;;;;2.54;93.45;99952.22;8420247;28;20048;-75
2022/11/29 17:31:52;;;;;;;106.80;47.95;;;;;;;2.43;93.48;99953.09;8368839;28;20380;-75
2022/11/29 17:35:53;;;;;;;110.68;47.42;;;;;;;2.44;93.54;99944.03;8418249;28;20089;-76
2022/11/29 17:39:55;;;;;;;120.18;49.67;;;;;;;2.41;93.69;99949.84;8422032;28;20044;-75
2022/11/29 17:43:56;;;;;;;118.28;50.28;;;;;;;2.39;93.71;99951.91;8413888;28;20064;-75
2022/11/29 17:47:58;;;;;;;122.82;48.38;;;;;;;2.46;93.19;99960.59;8412206;28;20126;-75
2022/11/29 17:51:59;;;;;;;108.38;47.13;;;;;;;2.41;93.25;99955.97;8409523;28;20128;-75
2022/11/29 17:56:05;;;;;;;109.38;48.17;;;;;;;2.36;93.22;99960.41;8417070;28;20040;-74
2022/11/29 18:00:07;;;;;;;119.28;49.17;;;;;;;2.38;93.46;99960.97;8364503;28;20055;-76
2022/11/29 18:04:08;;;;;;;121.00;47.63;;;;;;;2.41;93.29;99976.50;8324657;28;20052;-74
2022/11/29 18:08:10;;;;;;;101.55;46.08;;;;;;;2.37;93.33;99975.34;8413012;28;20127;-74
2022/11/29 18:12:11;;;;;;;110.47;46.90;;;;;;;2.28;93.40;99982.06;8415018;28;20056;-75
2022/11/29 18:16:15;;;;;;;110.95;46.90;;;;;;;2.21;93.42;99984.06;8367885;28;20055;-75
2022/11/29 18:20:16;;;;;;;125.05;50.53;;;;;;;2.19;93.69;99978.94;8418540;28;20051;-74
2022/11/29 18:24:17;;;;;;;125.55;49.50;;;;;;;2.20;93.33;99985.09;8378121;28;20422;-75
2022/11/29 18:28:19;;;;;;;119.55;51.35;;;;;;;2.04;93.87;99987.41;8376053;28;20455;-73
2022/11/29 18:32:21;;;;;;;124.25;51.17;;;;;;;2.03;94.06;99996.44;8410238;28;20055;-75
2022/11/29 18:36:25;;;;;;;114.75;49.70;;;;;;;1.99;94.17;100000.63;8403722;28;20124;-76
2022/11/29 18:40:28;;;;;;;116.10;48.65;;;;;;;2.02;93.99;100000.16;8414264;28;20056;-75
2022/11/29 18:44:30;;;;;;;115.80;49.83;;;;;;;2.05;93.95;99997.03;8385364;28;20471;-75
2022/11/29 18:48:31;;;;;;;125.32;50.30;;;;;;;2.08;93.65;99993.91;8416817;28;20055;-75
2022/11/29 18:52:32;;;;;;;111.82;47.40;;;;;;;2.01;93.83;99998.50;8366564;28;20048;-74
2022/11/29 18:56:35;;;;;;;118.50;49.58;;;;;;;2.02;93.89;100002.81;8421261;28;20547;-74
2022/11/29 19:00:36;;;;;;;123.13;50.53;;;;;;;2.04;93.68;100010.56;8406425;28;20064;-75
2022/11/29 19:04:37;;;;;;;111.28;49.35;;;;;;;2.05;93.60;100010.34;8378980;28;20083;-75
2022/11/29 19:08:38;;;;;;;123.43;49.97;;;;;;;1.90;93.98;100023.31;8418011;28;20051;-74
2022/11/29 19:12:39;;;;;;;115.40;47.85;;;;;;;1.79;93.84;100020.63;8402870;28;20405;-75
2022/11/29 19:16:43;;;;;;;118.88;49.67;;;;;;;1.72;93.98;100018.06;8380152;28;20036;-74
2022/11/29 19:20:44;;;;;;;129.20;50.17;;;;;;;1.50;94.07;100027.63;8367860;28;20040;-74